createdAt,value
2022-11-25T00:02:22.507Z,7.87
2022-11-25T00:05:26.660Z,6.00
2022-11-25T00:08:28.434Z,6.73
2022-11-25T00:11:30.698Z,9.47
2022-11-25T00:14:32.455Z,5.00
2022-11-25T00:17:34.210Z,7.30
2022-11-25T00:20:37.651Z,7.20
2022-11-25T00:24:08.309Z,5.03
2022-11-25T00:27:09.950Z,7.03
2022-11-25T00:30:13.330Z,6.87
2022-11-25T00:33:15.001Z,6.83
2022-11-25T00:36:19.697Z,8.27
2022-11-25T00:39:24.538Z,7.93
2022-11-25T00:42:44.690Z,6.10
2022-11-25T00:45:46.430Z,9.37
2022-11-25T00:48:48.114Z,10.93
2022-11-25T00:51:49.779Z,8.20
2022-11-25T00:54:52.696Z,4.87
2022-11-25T00:57:54.376Z,5.40
2022-11-25T01:00:56.204Z,7.00
2022-11-25T01:03:57.923Z,7.30
2022-11-25T01:07:00.629Z,7.70
2022-11-25T01:10:02.308Z,15.10
2022-11-25T01:13:03.982Z,6.13
2022-11-25T01:16:07.380Z,10.00
2022-11-25T01:19:10.434Z,5.13
2022-11-25T01:22:14.202Z,4.63
2022-11-25T01:25:15.976Z,7.07
2022-11-25T01:28:17.733Z,6.63
2022-11-25T01:31:21.296Z,7.20
2022-11-25T01:34:25.344Z,8.90
2022-11-25T01:37:27.002Z,8.03
2022-11-25T01:40:28.681Z,8.83
2022-11-25T01:43:31.139Z,7.60
2022-11-25T01:46:56.094Z,7.37
2022-11-25T01:50:07.267Z,7.70
2022-11-25T01:53:11.934Z,11.50
2022-11-25T01:56:14.002Z,10.00
2022-11-25T01:59:16.043Z,7.87
2022-11-25T02:02:19.337Z,10.37
2022-11-25T02:05:32.371Z,9.37
2022-11-25T02:08:35.629Z,11.83
2022-11-25T02:11:42.499Z,7.43
2022-11-25T02:14:45.888Z,7.17
2022-11-25T02:17:47.626Z,8.57
2022-11-25T02:20:49.274Z,9.20
2022-11-25T02:24:18.294Z,11.57
2022-11-25T02:27:20.870Z,6.73
2022-11-25T02:30:22.670Z,12.53
2022-11-25T02:33:24.750Z,8.40
2022-11-25T02:36:26.640Z,5.80
2022-11-25T02:39:29.033Z,12.10
2022-11-25T02:42:30.980Z,9.20
2022-11-25T02:45:56.845Z,11.60
2022-11-25T02:49:15.280Z,6.60
2022-11-25T02:52:17.033Z,11.17
2022-11-25T02:55:18.691Z,8.30
2022-11-25T02:58:20.947Z,8.70
2022-11-25T03:01:23.149Z,9.90
2022-11-25T03:04:25.006Z,10.00
2022-11-25T03:07:26.733Z,8.03
2022-11-25T03:10:28.660Z,10.40
2022-11-25T03:13:30.337Z,10.03
2022-11-25T03:16:32.035Z,11.63
2022-11-25T03:19:33.753Z,7.37
2022-11-25T03:22:35.933Z,11.10
2022-11-25T03:25:37.833Z,9.83
2022-11-25T03:28:39.572Z,10.30
2022-11-25T03:31:41.339Z,10.37
2022-11-25T03:34:45.280Z,7.37
2022-11-25T03:37:47.258Z,10.07
2022-11-25T03:40:52.243Z,12.13
2022-11-25T03:43:54.013Z,9.83
2022-11-25T03:46:55.796Z,8.00
2022-11-25T03:49:57.518Z,6.53
2022-11-25T03:52:59.158Z,8.40
2022-11-25T03:56:00.817Z,12.83
2022-11-25T03:59:05.753Z,11.37
2022-11-25T04:02:07.567Z,11.47
2022-11-25T04:05:09.444Z,7.53
2022-11-25T04:08:11.192Z,9.57
2022-11-25T04:11:12.897Z,8.23
2022-11-25T04:14:14.562Z,10.57
2022-11-25T04:17:16.260Z,7.97
2022-11-25T04:20:17.945Z,10.37
2022-11-25T04:23:19.688Z,6.77
2022-11-25T04:26:21.399Z,7.37
2022-11-25T04:29:23.227Z,10.73
2022-11-25T04:32:25.006Z,6.70
2022-11-25T04:35:26.798Z,8.83
2022-11-25T04:38:28.454Z,6.33
2022-11-25T04:41:30.305Z,8.47
2022-11-25T04:44:32.015Z,7.33
2022-11-25T04:47:33.724Z,8.53
2022-11-25T04:50:35.558Z,7.00
2022-11-25T04:53:37.244Z,7.93
2022-11-25T04:56:38.857Z,5.90
2022-11-25T04:59:41.588Z,8.20
2022-11-25T05:02:46.195Z,9.73
2022-11-25T05:05:47.924Z,9.00
2022-11-25T05:08:50.519Z,7.67
2022-11-25T05:11:52.330Z,9.20
2022-11-25T05:14:54.102Z,7.73
2022-11-25T05:17:55.805Z,6.10
2022-11-25T05:21:02.317Z,4.50
2022-11-25T05:24:04.393Z,8.07
2022-11-25T05:27:09.145Z,5.90
2022-11-25T05:30:11.130Z,6.83
2022-11-25T05:33:12.879Z,9.27
2022-11-25T05:36:14.642Z,4.83
2022-11-25T05:39:16.338Z,5.90
2022-11-25T05:42:18.028Z,4.77
2022-11-25T05:45:20.363Z,7.67
2022-11-25T05:48:22.140Z,8.27
2022-11-25T05:51:25.275Z,8.57
2022-11-25T05:54:27.084Z,12.00
2022-11-25T05:57:31.178Z,11.13
2022-11-25T06:00:32.910Z,9.53
2022-11-25T06:03:35.164Z,10.10
2022-11-25T06:06:36.876Z,5.57
2022-11-25T06:09:38.532Z,8.27
2022-11-25T06:12:40.326Z,7.37
2022-11-25T06:15:43.554Z,9.33
2022-11-25T06:18:45.697Z,5.87
2022-11-25T06:21:47.971Z,11.47
2022-11-25T06:24:57.609Z,8.83
2022-11-25T06:28:12.842Z,8.33
2022-11-25T06:31:18.527Z,7.17
2022-11-25T06:34:20.399Z,8.77
2022-11-25T06:37:24.691Z,7.93
2022-11-25T06:40:26.627Z,10.67
2022-11-25T06:43:28.498Z,10.07
2022-11-25T06:46:32.878Z,7.63
2022-11-25T06:49:34.889Z,7.53
2022-11-25T06:52:37.000Z,8.13
2022-11-25T06:55:40.819Z,8.37
2022-11-25T06:58:44.029Z,7.07
2022-11-25T07:01:45.805Z,8.47
2022-11-25T07:04:47.606Z,5.87
2022-11-25T07:07:49.307Z,5.97
2022-11-25T07:10:51.433Z,5.40
2022-11-25T07:13:55.708Z,10.20
2022-11-25T07:17:00.162Z,10.37
2022-11-25T07:20:01.805Z,8.73
2022-11-25T07:23:03.713Z,9.07
2022-11-25T07:26:11.502Z,5.33
2022-11-25T07:29:44.470Z,7.40
2022-11-25T07:32:37.518Z,7.33
2022-11-25T07:35:39.188Z,7.30
2022-11-25T07:38:46.317Z,8.60
2022-11-25T07:41:54.750Z,5.43
2022-11-25T07:44:56.472Z,5.17
2022-11-25T07:47:58.159Z,8.20
2022-11-25T07:50:59.829Z,10.40
2022-11-25T07:54:04.282Z,11.73
2022-11-25T07:57:05.947Z,9.47
2022-11-25T08:00:08.200Z,7.57
2022-11-25T08:03:09.848Z,8.73
2022-11-25T08:06:14.341Z,5.37
2022-11-25T08:09:19.428Z,8.20
2022-11-25T08:12:21.250Z,9.63
2022-11-25T08:15:22.858Z,5.43
2022-11-25T08:18:24.517Z,5.17
2022-11-25T08:21:26.348Z,8.13
2022-11-25T08:24:29.428Z,6.97
2022-11-25T08:27:31.014Z,9.60
2022-11-25T08:30:32.661Z,9.67
2022-11-25T08:33:34.328Z,8.43
2022-11-25T08:36:36.487Z,5.87
2022-11-25T08:39:53.945Z,4.97
2022-11-25T08:42:55.740Z,6.43
2022-11-25T08:45:57.532Z,4.83
2022-11-25T08:49:23.618Z,3.73
2022-11-25T08:52:25.313Z,4.57
2022-11-25T08:55:28.993Z,5.67
2022-11-25T08:58:30.867Z,5.13
2022-11-25T09:01:38.796Z,5.83
2022-11-25T09:04:40.511Z,6.00
2022-11-25T09:07:43.456Z,5.30
2022-11-25T09:10:45.488Z,6.07
2022-11-25T09:13:47.264Z,6.00
2022-11-25T09:16:51.773Z,3.80
2022-11-25T09:19:54.514Z,5.93
2022-11-25T09:23:16.261Z,5.30
2022-11-25T09:26:24.064Z,6.00
2022-11-25T09:29:27.744Z,5.20
2022-11-25T09:32:30.302Z,4.57
2022-11-25T09:35:31.974Z,7.67
2022-11-25T09:38:41.674Z,5.03
2022-11-25T09:42:18.565Z,4.70
2022-11-25T09:45:46.046Z,4.87
2022-11-25T09:48:56.996Z,4.67
2022-11-25T09:52:11.145Z,5.77
2022-11-25T09:55:22.694Z,6.47
2022-11-25T09:58:35.584Z,3.40
2022-11-25T10:01:52.545Z,4.23
2022-11-25T10:05:08.000Z,4.13
2022-11-25T10:08:18.598Z,4.70
2022-11-25T10:11:38.333Z,3.63
2022-11-25T10:14:48.011Z,2.77
2022-11-25T10:17:54.029Z,3.93
2022-11-25T10:20:56.001Z,5.50
2022-11-25T10:23:57.802Z,6.93
2022-11-25T10:27:04.760Z,5.90
2022-11-25T10:30:24.147Z,4.00
2022-11-25T10:33:32.435Z,10.87
2022-11-25T10:36:38.486Z,7.40
2022-11-25T10:39:43.300Z,7.97
2022-11-25T10:42:45.095Z,6.30
2022-11-25T10:45:53.916Z,4.47
2022-11-25T10:49:00.508Z,13.20
2022-11-25T10:52:02.174Z,10.77
2022-11-25T10:55:16.159Z,6.33
2022-11-25T10:58:31.342Z,5.37
2022-11-25T11:01:33.038Z,5.97
2022-11-25T11:04:48.675Z,4.60
2022-11-25T11:08:13.133Z,6.83
2022-11-25T11:11:20.424Z,5.73
2022-11-25T11:14:22.380Z,3.27
2022-11-25T11:17:37.049Z,3.57
2022-11-25T11:20:50.357Z,6.37
2022-11-25T11:23:57.281Z,7.27
2022-11-25T11:27:21.760Z,6.13
2022-11-25T11:30:26.586Z,4.93
2022-11-25T11:33:35.473Z,5.33
2022-11-25T11:36:59.117Z,6.83
2022-11-25T11:40:25.317Z,5.77
2022-11-25T11:43:47.618Z,10.13
2022-11-25T11:46:58.386Z,5.07
2022-11-25T11:50:20.874Z,4.83
2022-11-25T11:54:07.880Z,5.50
2022-11-25T11:57:39.858Z,6.30
2022-11-25T12:00:56.783Z,5.30
2022-11-25T12:04:20.257Z,5.60
2022-11-25T12:07:43.970Z,7.77
2022-11-25T12:10:51.023Z,4.67
2022-11-25T12:14:25.503Z,4.73
2022-11-25T12:17:53.333Z,4.13
2022-11-25T12:21:41.591Z,5.57
2022-11-25T12:25:12.808Z,3.87
2022-11-25T12:28:25.843Z,4.60
2022-11-25T12:31:36.075Z,6.80
2022-11-25T12:35:09.609Z,5.87
2022-11-25T12:38:55.720Z,7.00
2022-11-25T12:42:01.964Z,6.90
2022-11-25T12:45:20.422Z,4.10
2022-11-25T12:48:22.146Z,5.40
2022-11-25T12:51:48.783Z,8.17
2022-11-25T12:55:10.127Z,6.37
2022-11-25T12:58:49.720Z,6.23
2022-11-25T13:02:31.414Z,4.90
2022-11-25T13:06:22.757Z,5.50
2022-11-25T13:09:40.995Z,4.83
2022-11-25T13:12:51.400Z,9.13
2022-11-25T13:15:55.286Z,6.70
2022-11-25T13:18:57.832Z,4.97
2022-11-25T13:22:06.338Z,8.17
2022-11-25T13:25:34.860Z,6.13
2022-11-25T13:28:38.086Z,5.50
2022-11-25T13:32:05.106Z,8.40
2022-11-25T13:35:22.205Z,7.00
2022-11-25T13:38:30.068Z,4.67
2022-11-25T13:41:40.895Z,9.97
2022-11-25T13:44:57.569Z,5.83
2022-11-25T13:48:15.805Z,7.80
2022-11-25T13:51:21.733Z,5.60
2022-11-25T13:54:31.410Z,7.40
2022-11-25T13:57:35.366Z,6.40
2022-11-25T14:00:37.019Z,6.47
2022-11-25T14:03:44.958Z,7.40
2022-11-25T14:07:04.044Z,8.27
2022-11-25T14:10:37.294Z,9.83
2022-11-25T14:14:03.229Z,7.03
2022-11-25T14:17:23.181Z,7.37
2022-11-25T14:21:02.570Z,9.50
2022-11-25T14:24:16.335Z,8.20
2022-11-25T14:27:20.745Z,10.63
2022-11-25T14:30:24.506Z,8.20
2022-11-25T14:33:36.515Z,7.07
2022-11-25T14:36:45.943Z,7.27
2022-11-25T14:40:07.634Z,9.87
2022-11-25T14:43:24.179Z,9.97
2022-11-25T14:46:25.945Z,10.00
2022-11-25T14:50:00.082Z,11.40
2022-11-25T14:53:09.850Z,13.67
2022-11-25T14:56:17.010Z,13.40
2022-11-25T14:59:18.960Z,10.17
2022-11-25T15:02:39.497Z,10.57
2022-11-25T15:05:41.444Z,9.90
2022-11-25T15:08:45.859Z,12.27
2022-11-25T15:11:48.538Z,8.40
2022-11-25T15:14:53.042Z,9.40
2022-11-25T15:17:55.291Z,13.20
2022-11-25T15:20:59.315Z,13.03
2022-11-25T15:24:05.109Z,10.47
2022-11-25T15:27:22.309Z,11.00
2022-11-25T15:30:25.494Z,10.77
2022-11-25T15:33:29.120Z,11.60
2022-11-25T15:36:31.157Z,8.73
2022-11-25T15:39:35.450Z,9.40
2022-11-25T15:42:37.427Z,12.03
2022-11-25T15:45:48.376Z,11.93
2022-11-25T15:48:52.371Z,9.27
2022-11-25T15:52:00.155Z,10.97
2022-11-25T15:55:16.871Z,14.03
2022-11-25T15:58:24.067Z,9.57
2022-11-25T16:01:28.994Z,9.50
2022-11-25T16:04:30.699Z,11.40
2022-11-25T16:07:32.417Z,12.00
2022-11-25T16:10:55.632Z,13.23
2022-11-25T16:14:25.814Z,15.27
2022-11-25T16:17:27.968Z,14.13
2022-11-25T16:20:29.623Z,12.33
2022-11-25T16:23:40.582Z,12.20
2022-11-25T16:26:48.276Z,15.03
2022-11-25T16:30:09.817Z,16.43
2022-11-25T16:33:11.405Z,13.50
2022-11-25T16:36:13.088Z,12.10
2022-11-25T16:39:14.794Z,13.17
2022-11-25T16:42:21.486Z,12.70
2022-11-25T16:45:28.006Z,10.93
2022-11-25T16:48:29.891Z,13.43
2022-11-25T16:51:31.559Z,13.57
2022-11-25T16:54:33.946Z,18.40
2022-11-25T16:57:36.562Z,16.40
2022-11-25T17:00:38.192Z,13.93
2022-11-25T17:03:39.975Z,14.40
2022-11-25T17:10:00.632Z,12.77
2022-11-25T17:13:02.986Z,15.77
2022-11-25T17:16:05.120Z,16.97
2022-11-25T17:19:13.542Z,15.50
2022-11-25T17:22:24.928Z,16.60
2022-11-25T17:25:29.947Z,15.83
2022-11-25T17:28:35.531Z,15.87
2022-11-25T17:31:38.747Z,14.03
2022-11-25T17:34:40.446Z,12.80
2022-11-25T17:37:42.085Z,15.30
2022-11-25T17:40:44.594Z,14.63
2022-11-25T17:43:48.884Z,11.40
2022-11-25T17:46:51.027Z,14.20
2022-11-25T17:49:53.144Z,17.07
2022-11-25T17:52:54.825Z,54.70
2022-11-25T17:55:56.570Z,15.63
2022-11-25T17:59:05.703Z,16.13
2022-11-25T18:02:36.936Z,13.80
2022-11-25T18:05:38.724Z,13.37
2022-11-25T18:08:43.381Z,16.70
2022-11-25T18:11:48.496Z,12.13
2022-11-25T18:14:50.361Z,15.43
2022-11-25T18:18:01.663Z,13.13
2022-11-25T18:21:03.508Z,16.33
2022-11-25T18:24:05.592Z,14.27
2022-11-25T18:27:10.717Z,17.30
2022-11-25T18:30:21.011Z,16.07
2022-11-25T18:33:22.738Z,12.33
2022-11-25T18:36:24.405Z,13.93
2022-11-25T18:39:26.152Z,13.50
2022-11-25T18:42:27.957Z,15.40
2022-11-25T18:45:42.173Z,18.10
2022-11-25T18:48:43.938Z,15.00
2022-11-25T18:51:45.692Z,18.47
2022-11-25T18:54:48.317Z,15.07
2022-11-25T18:57:51.895Z,13.17
2022-11-25T19:00:58.688Z,16.37
2022-11-25T19:04:00.331Z,15.90
2022-11-25T19:07:01.975Z,16.80
2022-11-25T19:10:05.977Z,17.43
2022-11-25T19:13:19.014Z,17.83
2022-11-25T19:16:22.426Z,20.83
2022-11-25T19:19:24.459Z,17.67
2022-11-25T19:22:26.106Z,17.37
2022-11-25T19:25:27.856Z,20.33
2022-11-25T19:28:30.505Z,17.70
2022-11-25T19:31:33.968Z,17.67
2022-11-25T19:34:43.711Z,14.57
2022-11-25T19:37:45.732Z,15.43
2022-11-25T19:40:49.416Z,17.53
2022-11-25T19:43:51.148Z,20.33
2022-11-25T19:47:14.709Z,18.73
2022-11-25T19:50:25.565Z,16.77
2022-11-25T19:53:33.375Z,17.67
2022-11-25T19:56:37.612Z,17.60
2022-11-25T19:59:39.324Z,18.23
2022-11-25T20:02:41.641Z,21.17
2022-11-25T20:05:43.979Z,20.20
2022-11-25T20:08:46.893Z,17.30
2022-11-25T20:11:54.027Z,19.63
2022-11-25T20:14:55.923Z,15.70
2022-11-25T20:18:00.283Z,16.23
2022-11-25T20:21:04.744Z,15.93
2022-11-25T20:24:12.793Z,17.30
2022-11-25T20:27:16.033Z,18.83
2022-11-25T20:30:28.649Z,20.73
2022-11-25T20:33:30.330Z,20.07
2022-11-25T20:36:33.209Z,20.90
2022-11-25T20:39:34.910Z,17.97
2022-11-25T20:42:37.248Z,18.60
2022-11-25T20:45:38.952Z,19.57
2022-11-25T20:48:40.943Z,18.07
2022-11-25T20:51:43.161Z,17.37
2022-11-25T20:54:44.900Z,18.43
2022-11-25T20:57:47.539Z,18.90
2022-11-25T21:00:56.873Z,18.87
2022-11-25T21:03:59.079Z,16.17
2022-11-25T21:07:00.976Z,16.47
2022-11-25T21:10:03.112Z,16.73
2022-11-25T21:13:13.970Z,15.53
2022-11-25T21:16:15.869Z,15.40
2022-11-25T21:19:17.847Z,14.57
2022-11-25T21:22:20.768Z,13.23
2022-11-25T21:25:23.831Z,14.97
2022-11-25T21:28:27.655Z,18.70
2022-11-25T21:31:34.575Z,17.57
2022-11-25T21:34:36.712Z,16.07
2022-11-25T21:37:40.746Z,18.60
2022-11-25T21:40:45.826Z,17.37
2022-11-25T21:43:49.304Z,18.00
2022-11-25T21:46:53.661Z,14.47
2022-11-25T21:49:55.563Z,18.27
2022-11-25T21:53:01.428Z,18.27
2022-11-25T21:56:03.177Z,18.73
2022-11-25T21:59:07.582Z,20.77
2022-11-25T22:02:18.512Z,21.93
2022-11-25T22:05:22.621Z,18.43
2022-11-25T22:08:24.437Z,18.40
2022-11-25T22:11:35.772Z,16.50
2022-11-25T22:14:38.297Z,19.07
2022-11-25T22:17:40.332Z,17.40
2022-11-25T22:20:42.032Z,16.33
2022-11-25T22:23:52.121Z,21.17
2022-11-25T22:26:58.274Z,17.93
2022-11-25T22:30:00.185Z,19.60
2022-11-25T22:33:03.299Z,16.97
2022-11-25T22:36:05.369Z,22.20
2022-11-25T22:39:20.522Z,19.83
2022-11-25T22:42:32.278Z,19.03
2022-11-25T22:45:34.758Z,17.83
2022-11-25T22:48:38.738Z,19.53
2022-11-25T22:51:40.445Z,19.20
2022-11-25T22:54:42.061Z,20.07
2022-11-25T22:57:44.400Z,21.23
2022-11-25T23:00:47.382Z,22.13
2022-11-25T23:03:49.101Z,22.10
2022-11-25T23:06:51.667Z,20.73
2022-11-25T23:09:56.586Z,16.73
2022-11-25T23:12:58.261Z,21.23
2022-11-25T23:16:03.748Z,20.57
2022-11-25T23:19:06.513Z,22.03
2022-11-25T23:22:11.340Z,17.87
2022-11-25T23:25:18.096Z,22.27
2022-11-25T23:28:22.512Z,19.50
2022-11-25T23:31:25.542Z,17.73
2022-11-25T23:34:27.342Z,21.63
2022-11-25T23:37:29.141Z,21.20
2022-11-25T23:40:30.754Z,20.10
2022-11-25T23:43:32.441Z,22.80
2022-11-25T23:46:37.228Z,18.30
2022-11-25T23:49:41.366Z,20.77
2022-11-25T23:52:43.098Z,22.13
2022-11-25T23:55:44.826Z,22.07
2022-11-25T23:58:46.624Z,19.97
